createdAt,value
2018-07-11T00:01:02.170Z,14
2018-07-11T00:02:09.377Z,13.9
2018-07-11T00:03:16.595Z,13.9
2018-07-11T00:04:23.792Z,13.8
2018-07-11T00:05:30.726Z,13.8
2018-07-11T00:06:37.669Z,13.7
2018-07-11T00:07:44.904Z,13.7
2018-07-11T00:08:52.118Z,13.7
2018-07-11T00:09:59.335Z,13.7
2018-07-11T00:11:06.541Z,13.8
2018-07-11T00:12:13.750Z,13.7
2018-07-11T00:13:20.702Z,13.7
2018-07-11T00:14:27.911Z,13.7
2018-07-11T00:15:35.121Z,13.7
2018-07-11T00:16:42.330Z,13.7
2018-07-11T00:17:49.536Z,13.6
2018-07-11T00:18:56.476Z,13.6
2018-07-11T00:20:03.689Z,13.7
2018-07-11T00:21:10.898Z,13.7
2018-07-11T00:22:18.136Z,13.7
2018-07-11T00:23:25.349Z,13.7
2018-07-11T00:24:32.562Z,13.7
2018-07-11T00:25:39.781Z,13.7
2018-07-11T00:26:46.999Z,13.6
2018-07-11T00:27:54.206Z,13.6
2018-07-11T00:29:01.447Z,13.6
2018-07-11T00:30:08.648Z,13.5
2018-07-11T00:31:15.851Z,13.5
2018-07-11T00:32:23.057Z,13.5
2018-07-11T00:33:30.270Z,13.5
2018-07-11T00:34:37.206Z,13.5
2018-07-11T00:35:44.134Z,13.5
2018-07-11T00:36:50.796Z,13.5
2018-07-11T00:37:58.005Z,13.5
2018-07-11T00:39:05.217Z,13.5
2018-07-11T00:40:12.430Z,13.6
2018-07-11T00:41:19.665Z,13.6
2018-07-11T00:42:26.871Z,13.6
2018-07-11T00:43:34.087Z,13.7
2018-07-11T00:44:41.016Z,13.6
2018-07-11T00:45:48.226Z,13.8
2018-07-11T00:46:55.162Z,13.7
2018-07-11T00:48:02.365Z,13.8
2018-07-11T00:49:09.585Z,13.7
2018-07-11T00:50:16.517Z,13.7
2018-07-11T00:51:23.734Z,13.7
2018-07-11T00:52:30.940Z,13.6
2018-07-11T00:53:38.149Z,13.6
2018-07-11T00:54:45.367Z,13.6
2018-07-11T00:55:52.583Z,13.6
2018-07-11T00:56:59.793Z,13.6
2018-07-11T00:58:06.729Z,13.6
2018-07-11T00:59:13.956Z,13.6
2018-07-11T01:00:21.150Z,13.6
2018-07-11T01:01:28.358Z,13.6
2018-07-11T01:02:35.579Z,13.7
2018-07-11T01:03:42.774Z,13.7
2018-07-11T01:04:49.986Z,13.7
2018-07-11T01:05:57.194Z,13.6
2018-07-11T01:07:04.404Z,13.6
2018-07-11T01:08:11.613Z,13.6
2018-07-11T01:09:18.820Z,13.6
2018-07-11T01:10:26.028Z,13.6
2018-07-11T01:11:33.238Z,13.6
2018-07-11T01:12:40.443Z,13.5
2018-07-11T01:13:47.373Z,13.6
2018-07-11T01:14:54.586Z,13.6
2018-07-11T01:16:01.791Z,13.6
2018-07-11T01:17:09.228Z,13.7
2018-07-11T01:18:16.441Z,13.7
2018-07-11T01:19:23.656Z,13.7
2018-07-11T01:20:30.862Z,13.7
2018-07-11T01:21:38.106Z,13.7
2018-07-11T01:22:45.311Z,13.7
2018-07-11T01:23:52.515Z,13.7
2018-07-11T01:24:59.720Z,13.8
2018-07-11T01:26:06.931Z,13.8
2018-07-11T01:27:14.149Z,13.7
2018-07-11T01:28:21.562Z,13.7
2018-07-11T01:29:28.766Z,13.7
2018-07-11T01:30:35.973Z,13.7
2018-07-11T01:31:43.194Z,13.7
2018-07-11T01:32:50.404Z,13.7
2018-07-11T01:33:57.611Z,13.7
2018-07-11T01:35:04.825Z,13.7
2018-07-11T01:36:12.046Z,13.8
2018-07-11T01:37:19.255Z,13.8
2018-07-11T01:38:26.188Z,13.8
2018-07-11T01:39:33.426Z,13.8
2018-07-11T01:40:40.631Z,13.9
2018-07-11T01:41:47.846Z,13.9
2018-07-11T01:42:55.050Z,13.9
2018-07-11T01:44:01.981Z,13.8
2018-07-11T01:45:09.192Z,13.9
2018-07-11T01:46:16.402Z,13.9
2018-07-11T01:47:23.608Z,13.9
2018-07-11T01:48:30.815Z,13.9
2018-07-11T01:49:38.026Z,14
2018-07-11T01:50:45.234Z,13.9
2018-07-11T01:51:52.450Z,13.9
2018-07-11T01:52:59.658Z,14
2018-07-11T01:54:06.864Z,14
2018-07-11T01:55:14.079Z,14
2018-07-11T01:56:21.291Z,13.9
2018-07-11T01:57:28.499Z,13.9
2018-07-11T01:58:35.709Z,13.8
2018-07-11T01:59:42.918Z,13.8
2018-07-11T02:00:50.125Z,13.8
2018-07-11T02:01:57.336Z,13.8
2018-07-11T02:03:04.546Z,13.8
2018-07-11T02:04:11.753Z,13.8
2018-07-11T02:05:18.968Z,13.8
2018-07-11T02:06:26.182Z,13.9
2018-07-11T02:07:33.397Z,13.8
2018-07-11T02:08:40.604Z,13.8
2018-07-11T02:09:47.813Z,13.9
2018-07-11T02:10:55.023Z,13.8
2018-07-11T02:12:01.960Z,13.8
2018-07-11T02:13:09.167Z,13.8
2018-07-11T02:14:16.383Z,13.9
2018-07-11T02:15:23.591Z,13.9
2018-07-11T02:16:30.522Z,13.9
2018-07-11T02:17:37.741Z,13.8
2018-07-11T02:18:44.957Z,13.8
2018-07-11T02:19:52.166Z,13.8
2018-07-11T02:20:59.376Z,13.8
2018-07-11T02:22:06.583Z,13.8
2018-07-11T02:23:13.786Z,13.8
2018-07-11T02:24:20.995Z,13.8
2018-07-11T02:25:28.207Z,13.8
2018-07-11T02:26:35.413Z,13.8
2018-07-11T02:27:42.623Z,13.8
2018-07-11T02:28:49.558Z,13.8
2018-07-11T02:29:56.796Z,13.7
2018-07-11T02:31:04.013Z,13.7
2018-07-11T02:32:11.222Z,13.7
2018-07-11T02:33:18.454Z,13.7
2018-07-11T02:34:25.397Z,13.7
2018-07-11T02:35:32.602Z,13.7
2018-07-11T02:36:39.826Z,13.7
2018-07-11T02:37:47.055Z,13.6
2018-07-11T02:38:54.264Z,13.6
2018-07-11T02:40:01.469Z,13.6
2018-07-11T02:41:08.686Z,13.6
2018-07-11T02:42:15.893Z,13.6
2018-07-11T02:43:23.119Z,13.6
2018-07-11T02:44:30.323Z,13.6
2018-07-11T02:45:37.533Z,13.6
2018-07-11T02:46:44.739Z,13.6
2018-07-11T02:47:51.945Z,13.6
2018-07-11T02:48:59.209Z,13.6
2018-07-11T02:50:06.424Z,13.6
2018-07-11T02:51:13.357Z,13.6
2018-07-11T02:52:20.562Z,13.7
2018-07-11T02:53:27.773Z,13.6
2018-07-11T02:54:34.704Z,13.6
2018-07-11T02:55:41.909Z,13.6
2018-07-11T02:56:49.120Z,13.6
2018-07-11T02:57:56.353Z,13.6
2018-07-11T02:59:03.681Z,13.6
2018-07-11T03:00:10.355Z,13.7
2018-07-11T03:01:17.567Z,13.7
2018-07-11T03:02:24.497Z,13.7
2018-07-11T03:03:31.715Z,13.6
2018-07-11T03:04:38.929Z,13.6
2018-07-11T03:05:46.147Z,13.6
2018-07-11T03:06:53.362Z,13.5
2018-07-11T03:08:00.569Z,13.5
2018-07-11T03:09:07.781Z,13.5
2018-07-11T03:10:14.992Z,13.4
2018-07-11T03:11:22.194Z,13.4
2018-07-11T03:12:29.402Z,13.4
2018-07-11T03:13:36.607Z,13.5
2018-07-11T03:14:43.543Z,13.5
2018-07-11T03:15:50.760Z,13.5
2018-07-11T03:16:57.966Z,13.5
2018-07-11T03:18:05.175Z,13.5
2018-07-11T03:19:12.384Z,13.6
2018-07-11T03:20:19.597Z,13.6
2018-07-11T03:21:26.805Z,13.5
2018-07-11T03:22:34.010Z,13.5
2018-07-11T03:23:41.220Z,13.6
2018-07-11T03:24:48.427Z,13.6
2018-07-11T03:25:55.635Z,13.6
2018-07-11T03:27:02.845Z,13.6
2018-07-11T03:28:10.054Z,13.6
2018-07-11T03:29:17.263Z,13.7
2018-07-11T03:30:24.469Z,13.7
2018-07-11T03:31:31.680Z,13.6
2018-07-11T03:32:39.093Z,13.6
2018-07-11T03:33:46.698Z,13.6
2018-07-11T03:34:53.912Z,13.6
2018-07-11T03:36:01.127Z,13.6
2018-07-11T03:37:08.346Z,13.6
2018-07-11T03:38:15.553Z,13.6
2018-07-11T03:39:22.769Z,13.6
2018-07-11T03:40:29.975Z,13.6
2018-07-11T03:41:37.179Z,13.6
2018-07-11T03:42:44.393Z,13.5
2018-07-11T03:43:51.606Z,13.5
2018-07-11T03:44:58.813Z,13.5
2018-07-11T03:46:06.024Z,13.5
2018-07-11T03:47:13.233Z,13.5
2018-07-11T03:48:20.439Z,13.5
2018-07-11T03:49:27.661Z,13.5
2018-07-11T03:50:34.861Z,13.5
2018-07-11T03:51:42.072Z,13.5
2018-07-11T03:52:49.283Z,13.5
2018-07-11T03:53:56.493Z,13.5
2018-07-11T03:55:03.702Z,13.5
2018-07-11T03:56:10.908Z,13.5
2018-07-11T03:57:18.115Z,13.5
2018-07-11T03:58:25.319Z,13.5
2018-07-11T03:59:32.534Z,13.4
2018-07-11T04:00:39.741Z,13.5
2018-07-11T04:01:46.949Z,13.5
2018-07-11T04:02:54.158Z,13.5
2018-07-11T04:04:01.360Z,13.5
2018-07-11T04:05:08.566Z,13.6
2018-07-11T04:06:15.777Z,13.6
2018-07-11T04:07:22.990Z,13.6
2018-07-11T04:08:30.198Z,13.6
2018-07-11T04:09:37.409Z,13.7
2018-07-11T04:10:44.834Z,13.8
2018-07-11T04:11:52.045Z,13.8
2018-07-11T04:12:59.259Z,13.8
2018-07-11T04:14:06.483Z,13.8
2018-07-11T04:15:13.690Z,13.8
2018-07-11T04:16:20.907Z,13.8
2018-07-11T04:17:28.131Z,13.7
2018-07-11T04:18:35.334Z,13.7
2018-07-11T04:19:42.544Z,13.7
2018-07-11T04:20:49.478Z,13.7
2018-07-11T04:21:56.693Z,13.7
2018-07-11T04:23:03.629Z,13.6
2018-07-11T04:24:10.846Z,13.6
2018-07-11T04:25:18.060Z,13.6
2018-07-11T04:26:25.269Z,13.5
2018-07-11T04:27:32.477Z,13.6
2018-07-11T04:28:39.785Z,13.6
2018-07-11T04:29:47.029Z,13.6
2018-07-11T04:30:54.239Z,13.6
2018-07-11T04:32:01.448Z,13.6
2018-07-11T04:33:08.664Z,13.6
2018-07-11T04:34:15.901Z,13.6
2018-07-11T04:35:23.112Z,13.6
2018-07-11T04:36:30.325Z,13.7
2018-07-11T04:37:37.539Z,13.7
2018-07-11T04:38:44.745Z,13.7
2018-07-11T04:39:51.959Z,13.8
2018-07-11T04:40:59.166Z,13.7
2018-07-11T04:42:06.383Z,13.8
2018-07-11T04:43:13.591Z,13.8
2018-07-11T04:44:20.799Z,13.9
2018-07-11T04:45:28.009Z,13.9
2018-07-11T04:46:35.224Z,13.9
2018-07-11T04:47:42.431Z,13.9
2018-07-11T04:48:49.638Z,13.9
2018-07-11T04:49:56.846Z,13.9
2018-07-11T04:51:04.054Z,13.8
2018-07-11T04:52:11.261Z,13.8
2018-07-11T04:53:18.471Z,13.8
2018-07-11T04:54:25.407Z,13.8
2018-07-11T04:55:32.647Z,13.7
2018-07-11T04:56:39.854Z,13.7
2018-07-11T04:57:47.063Z,13.7
2018-07-11T04:58:54.454Z,13.8
2018-07-11T05:00:01.838Z,13.8
2018-07-11T05:01:09.058Z,13.9
2018-07-11T05:02:16.267Z,14
2018-07-11T05:03:23.479Z,14
2018-07-11T05:04:30.416Z,14.1
2018-07-11T05:05:37.624Z,14.1
2018-07-11T05:06:44.834Z,14.1
2018-07-11T05:07:52.045Z,14.2
2018-07-11T05:08:59.259Z,14.2
2018-07-11T05:10:06.462Z,14.1
2018-07-11T05:11:13.887Z,14.1
2018-07-11T05:12:21.410Z,14.1
2018-07-11T05:13:28.618Z,14.1
2018-07-11T05:14:35.832Z,14.2
2018-07-11T05:15:43.047Z,14.2
2018-07-11T05:16:49.771Z,14.2
2018-07-11T05:17:56.979Z,14.2
2018-07-11T05:19:04.202Z,14.2
2018-07-11T05:20:11.412Z,14.3
2018-07-11T05:21:18.346Z,14.3
2018-07-11T05:22:25.556Z,14.4
2018-07-11T05:23:32.766Z,14.3
2018-07-11T05:24:39.971Z,14.4
2018-07-11T05:25:47.181Z,14.3
2018-07-11T05:26:54.396Z,14.2
2018-07-11T05:28:01.615Z,14.2
2018-07-11T05:29:08.826Z,14.2
2018-07-11T05:30:16.091Z,14.2
2018-07-11T05:31:23.299Z,14.3
2018-07-11T05:32:30.509Z,14.3
2018-07-11T05:33:37.713Z,14.4
2018-07-11T05:34:44.654Z,14.4
2018-07-11T05:35:51.897Z,14.4
2018-07-11T05:36:59.103Z,14.4
2018-07-11T05:38:06.338Z,14.3
2018-07-11T05:39:13.272Z,14.4
2018-07-11T05:40:20.488Z,14.4
2018-07-11T05:41:27.702Z,14.5
2018-07-11T05:42:34.785Z,14.6
2018-07-11T05:43:42.001Z,14.7
2018-07-11T05:44:49.208Z,14.7
2018-07-11T05:45:56.419Z,14.7
2018-07-11T05:47:03.627Z,14.7
2018-07-11T05:48:10.922Z,14.7
2018-07-11T05:49:18.200Z,14.7
2018-07-11T05:50:25.409Z,14.8
2018-07-11T05:51:32.630Z,14.8
2018-07-11T05:52:39.853Z,14.8
2018-07-11T05:53:47.071Z,14.8
2018-07-11T05:54:54.277Z,14.9
2018-07-11T05:56:01.484Z,14.9
2018-07-11T05:57:08.418Z,14.9
2018-07-11T05:58:15.629Z,14.7
2018-07-11T05:59:22.838Z,14.6
2018-07-11T06:00:30.050Z,14.7
2018-07-11T06:01:36.982Z,14.8
2018-07-11T06:02:44.448Z,14.8
2018-07-11T06:03:52.000Z,14.9
2018-07-11T06:04:59.212Z,14.8
2018-07-11T06:06:06.416Z,14.9
2018-07-11T06:07:13.621Z,15
2018-07-11T06:08:20.840Z,15
2018-07-11T06:09:28.049Z,15.1
2018-07-11T06:10:35.262Z,15.1
2018-07-11T06:11:42.468Z,15.2
2018-07-11T06:12:49.679Z,15.1
2018-07-11T06:13:56.886Z,15.2
2018-07-11T06:15:04.107Z,15.2
2018-07-11T06:16:11.321Z,15.2
2018-07-11T06:17:18.525Z,15.2
2018-07-11T06:18:25.741Z,15.2
2018-07-11T06:19:32.965Z,15.2
2018-07-11T06:20:40.193Z,15.2
2018-07-11T06:21:47.404Z,15.1
2018-07-11T06:22:54.614Z,15
2018-07-11T06:24:01.817Z,15
2018-07-11T06:25:09.032Z,15
2018-07-11T06:26:16.231Z,14.8
2018-07-11T06:27:23.442Z,14.7
2018-07-11T06:28:30.656Z,14.8
2018-07-11T06:29:37.862Z,14.8
2018-07-11T06:30:45.072Z,14.7
2018-07-11T06:31:52.278Z,14.7
2018-07-11T06:32:59.226Z,14.8
2018-07-11T06:34:06.441Z,14.7
2018-07-11T06:35:13.676Z,14.6
2018-07-11T06:36:20.885Z,14.6
2018-07-11T06:37:28.094Z,14.7
2018-07-11T06:38:35.298Z,14.6
2018-07-11T06:39:42.515Z,14.7
2018-07-11T06:40:49.719Z,14.7
2018-07-11T06:41:56.928Z,14.9
2018-07-11T06:43:04.132Z,15
2018-07-11T06:44:11.340Z,15.1
2018-07-11T06:45:18.550Z,15.2
2018-07-11T06:46:25.765Z,15.1
2018-07-11T06:47:32.977Z,15.1
2018-07-11T06:48:40.174Z,15.1
2018-07-11T06:49:47.383Z,15.1
2018-07-11T06:50:54.601Z,15.1
2018-07-11T06:52:01.597Z,15.1
2018-07-11T06:53:08.903Z,15.1
2018-07-11T06:54:16.112Z,15.1
2018-07-11T06:55:23.325Z,15.2
2018-07-11T06:56:30.533Z,15.2
2018-07-11T06:57:37.887Z,15.2
2018-07-11T06:58:44.999Z,15.2
2018-07-11T06:59:52.208Z,15.3
2018-07-11T07:00:59.152Z,15.3
2018-07-11T07:02:06.591Z,15.3
2018-07-11T07:03:13.516Z,15.2
2018-07-11T07:04:20.736Z,15.2
2018-07-11T07:05:27.955Z,15.4
2018-07-11T07:06:35.165Z,15.8
2018-07-11T07:07:42.109Z,16.1
2018-07-11T07:08:49.320Z,16.2
2018-07-11T07:09:56.533Z,16.3
2018-07-11T07:11:03.740Z,16.6
2018-07-11T07:12:10.954Z,16.8
2018-07-11T07:13:18.156Z,17
2018-07-11T07:14:25.372Z,17
2018-07-11T07:15:32.581Z,17.1
2018-07-11T07:16:39.962Z,16.9
2018-07-11T07:17:47.370Z,16.6
2018-07-11T07:18:54.577Z,16.4
2018-07-11T07:20:01.792Z,16.2
2018-07-11T07:21:09.010Z,15.9
2018-07-11T07:22:16.218Z,15.8
2018-07-11T07:23:23.204Z,15.9
2018-07-11T07:24:30.146Z,16.1
2018-07-11T07:25:37.359Z,16.5
2018-07-11T07:26:44.300Z,16.8
2018-07-11T07:27:51.516Z,16.8
2018-07-11T07:28:58.809Z,16.8
2018-07-11T07:30:06.074Z,16.9
2018-07-11T07:31:13.284Z,17
2018-07-11T07:32:20.220Z,17.1
2018-07-11T07:33:27.433Z,17.4
2018-07-11T07:34:34.370Z,17.9
2018-07-11T07:35:41.593Z,18.3
2018-07-11T07:36:48.924Z,18.7
2018-07-11T07:37:56.259Z,19.1
2018-07-11T07:39:03.472Z,19.2
2018-07-11T07:40:10.684Z,19
2018-07-11T07:41:17.891Z,18.7
2018-07-11T07:42:25.104Z,18.5
2018-07-11T07:43:32.328Z,18.5
2018-07-11T07:44:39.538Z,18.5
2018-07-11T07:45:46.746Z,18.8
2018-07-11T07:46:53.953Z,18.8
2018-07-11T07:48:01.163Z,18.9
2018-07-11T07:49:08.375Z,19.2
2018-07-11T07:50:15.586Z,19.5
2018-07-11T07:51:22.539Z,19.4
2018-07-11T07:52:29.751Z,19.5
2018-07-11T07:53:36.989Z,19.9
2018-07-11T07:54:44.214Z,20.3
2018-07-11T07:55:51.427Z,20.8
2018-07-11T07:56:58.893Z,20.7
2018-07-11T07:58:06.099Z,19.9
2018-07-11T07:59:13.038Z,19.5
2018-07-11T08:00:20.249Z,20
2018-07-11T08:01:27.501Z,20.8
2018-07-11T08:02:34.728Z,21.2
2018-07-11T08:03:41.946Z,21.3
2018-07-11T08:04:49.165Z,21.5
2018-07-11T08:05:56.377Z,21.7
2018-07-11T08:07:03.837Z,22.1
2018-07-11T08:08:11.330Z,22.5
2018-07-11T08:09:18.541Z,22.9
2018-07-11T08:10:25.756Z,23.3
2018-07-11T08:11:32.971Z,23.6
2018-07-11T08:12:40.346Z,23.1
2018-07-11T08:13:47.383Z,22.7
2018-07-11T08:14:54.597Z,22.6
2018-07-11T08:16:01.804Z,22.6
2018-07-11T08:17:09.013Z,22.6
2018-07-11T08:18:16.224Z,22.6
2018-07-11T08:19:23.436Z,22.7
2018-07-11T08:20:30.648Z,22.7
2018-07-11T08:21:37.864Z,22.5
2018-07-11T08:22:44.797Z,22.3
2018-07-11T08:23:52.011Z,21.5
2018-07-11T08:24:59.222Z,21
2018-07-11T08:26:06.443Z,20.9
2018-07-11T08:27:13.521Z,20.7
2018-07-11T08:28:21.072Z,20.4
2018-07-11T08:29:28.290Z,20.6
2018-07-11T08:30:35.228Z,21
2018-07-11T08:31:42.439Z,21.1
2018-07-11T08:32:49.650Z,20.8
2018-07-11T08:33:56.866Z,20.6
2018-07-11T08:35:03.867Z,20.4
2018-07-11T08:36:11.161Z,20.4
2018-07-11T08:37:18.378Z,20.4
2018-07-11T08:38:25.310Z,20.5
2018-07-11T08:39:32.542Z,20.4
2018-07-11T08:40:39.757Z,20.3
2018-07-11T08:41:46.969Z,20.5
2018-07-11T08:42:54.180Z,20.4
2018-07-11T08:44:01.405Z,20.4
2018-07-11T08:45:08.611Z,20.6
2018-07-11T08:46:15.827Z,20.7
2018-07-11T08:47:23.043Z,20.8
2018-07-11T08:48:30.251Z,20.7
2018-07-11T08:49:37.466Z,20.6
2018-07-11T08:50:44.675Z,20.5
2018-07-11T08:51:51.891Z,20.5
2018-07-11T08:52:59.105Z,20.5
2018-07-11T08:54:06.355Z,20.4
2018-07-11T08:55:13.340Z,20.4
2018-07-11T08:56:20.654Z,20.6
2018-07-11T08:57:27.870Z,20.8
2018-07-11T08:58:35.083Z,20.9
2018-07-11T08:59:42.292Z,20.9
2018-07-11T09:00:49.506Z,20.8
2018-07-11T09:01:56.721Z,20.7
2018-07-11T09:03:03.932Z,20.7
2018-07-11T09:04:11.146Z,20.7
2018-07-11T09:05:18.574Z,20.6
2018-07-11T09:06:25.785Z,20.7
2018-07-11T09:07:32.998Z,20.9
2018-07-11T09:08:40.210Z,21.1
2018-07-11T09:09:47.425Z,21
2018-07-11T09:10:54.798Z,21.2
2018-07-11T09:12:02.238Z,21.2
2018-07-11T09:13:09.180Z,21.3
2018-07-11T09:14:16.393Z,21.6
2018-07-11T09:15:23.613Z,22
2018-07-11T09:16:30.834Z,22.1
2018-07-11T09:17:38.050Z,21.8
2018-07-11T09:18:45.259Z,21.8
2018-07-11T09:19:52.477Z,21.5
2018-07-11T09:20:59.740Z,21.5
2018-07-11T09:22:06.958Z,21.5
2018-07-11T09:23:14.172Z,21.5
2018-07-11T09:24:21.494Z,21.3
2018-07-11T09:25:28.841Z,21.2
2018-07-11T09:26:36.055Z,21.2
2018-07-11T09:27:43.267Z,20.8
2018-07-11T09:28:50.478Z,20.7
2018-07-11T09:29:57.686Z,20.7
2018-07-11T09:31:04.908Z,20.6
2018-07-11T09:32:12.118Z,20.7
2018-07-11T09:33:18.799Z,20.8
2018-07-11T09:34:26.226Z,20.6
2018-07-11T09:35:33.441Z,20.6
2018-07-11T09:36:40.657Z,20.5
2018-07-11T09:37:47.873Z,20.7
2018-07-11T09:38:55.088Z,20.9
2018-07-11T09:40:02.305Z,21.1
2018-07-11T09:41:09.511Z,21.4
2018-07-11T09:42:16.729Z,21.6
2018-07-11T09:43:23.661Z,21.7
2018-07-11T09:44:30.882Z,21.9
2018-07-11T09:45:38.347Z,22.2
2018-07-11T09:46:45.608Z,22.2
2018-07-11T09:47:52.821Z,22.3
2018-07-11T09:48:59.764Z,22.2
2018-07-11T09:50:06.701Z,22.2
2018-07-11T09:51:13.921Z,22.1
2018-07-11T09:52:21.334Z,21.8
2018-07-11T09:53:28.627Z,21.5
2018-07-11T09:54:35.293Z,21.4
2018-07-11T09:55:42.507Z,21.3
2018-07-11T09:56:49.721Z,21.2
2018-07-11T09:57:56.948Z,20.9
2018-07-11T09:59:04.159Z,21
2018-07-11T10:00:11.372Z,21
2018-07-11T10:01:18.592Z,20.9
2018-07-11T10:02:25.814Z,21.2
2018-07-11T10:03:33.024Z,21.2
2018-07-11T10:04:40.235Z,21
2018-07-11T10:05:47.446Z,21.1
2018-07-11T10:06:54.661Z,21.3
2018-07-11T10:08:01.606Z,21.3
2018-07-11T10:09:08.845Z,21.1
2018-07-11T10:10:16.062Z,20.9
2018-07-11T10:11:23.275Z,20.8
2018-07-11T10:12:30.608Z,21.2
2018-07-11T10:13:37.941Z,21.3
2018-07-11T10:14:45.153Z,20.9
2018-07-11T10:15:52.365Z,20.6
2018-07-11T10:16:59.296Z,20.6
2018-07-11T10:18:06.516Z,20.8
2018-07-11T10:19:13.728Z,21.2
2018-07-11T10:20:20.939Z,21.3
2018-07-11T10:21:27.881Z,21.6
2018-07-11T10:22:35.158Z,21.8
2018-07-11T10:23:42.379Z,21.9
2018-07-11T10:24:49.319Z,21.9
2018-07-11T10:25:56.537Z,21.9
2018-07-11T10:27:03.481Z,21.5
2018-07-11T10:28:10.693Z,21
2018-07-11T10:29:17.907Z,21
2018-07-11T10:30:25.127Z,21.1
2018-07-11T10:31:32.334Z,21.3
2018-07-11T10:32:39.565Z,21.1
2018-07-11T10:33:46.776Z,20.9
2018-07-11T10:34:53.990Z,20.9
2018-07-11T10:36:00.933Z,20.9
2018-07-11T10:37:08.147Z,20.7
2018-07-11T10:38:15.359Z,20.8
2018-07-11T10:39:22.567Z,20.6
2018-07-11T10:40:29.779Z,20.7
2018-07-11T10:41:36.989Z,20.6
2018-07-11T10:42:44.204Z,20.6
2018-07-11T10:43:51.420Z,20.8
2018-07-11T10:44:58.734Z,20.6
2018-07-11T10:46:06.133Z,20.8
2018-07-11T10:47:13.349Z,21.2
2018-07-11T10:48:20.565Z,21.5
2018-07-11T10:49:27.778Z,21.7
2018-07-11T10:50:35.060Z,21.7
2018-07-11T10:51:42.380Z,21.7
2018-07-11T10:52:49.593Z,21.5
2018-07-11T10:53:56.814Z,21.7
2018-07-11T10:55:04.034Z,21.7
2018-07-11T10:56:11.253Z,21.5
2018-07-11T10:57:18.186Z,21.6
2018-07-11T10:58:25.400Z,21.9
2018-07-11T10:59:32.848Z,22.1
2018-07-11T11:00:39.853Z,22
2018-07-11T11:01:47.149Z,22.1
2018-07-11T11:02:54.374Z,22.2
2018-07-11T11:04:01.590Z,21.9
2018-07-11T11:05:08.801Z,22
2018-07-11T11:06:16.030Z,22.1
2018-07-11T11:07:23.248Z,22
2018-07-11T11:08:30.466Z,22.2
2018-07-11T11:09:37.681Z,22.3
2018-07-11T11:10:44.887Z,22.2
2018-07-11T11:11:52.108Z,22.3
2018-07-11T11:12:59.316Z,22.5
2018-07-11T11:14:06.534Z,22.7
2018-07-11T11:15:13.746Z,22.7
2018-07-11T11:16:20.963Z,22.7
2018-07-11T11:17:28.184Z,22.7
2018-07-11T11:18:35.631Z,22.3
2018-07-11T11:19:42.841Z,22.2
2018-07-11T11:20:49.779Z,22.2
2018-07-11T11:21:56.737Z,22.3
2018-07-11T11:23:03.683Z,22.5
2018-07-11T11:24:10.900Z,22.9
2018-07-11T11:25:18.113Z,23.3
2018-07-11T11:26:25.357Z,23.6
2018-07-11T11:27:32.310Z,23.5
2018-07-11T11:28:39.241Z,22.9
2018-07-11T11:29:46.457Z,22.6
2018-07-11T11:30:53.673Z,22.5
2018-07-11T11:32:00.789Z,22.6
2018-07-11T11:33:08.327Z,22.7
2018-07-11T11:34:15.544Z,22.9
2018-07-11T11:35:22.760Z,23.3
2018-07-11T11:36:29.973Z,23.6
2018-07-11T11:37:37.196Z,23.7
2018-07-11T11:38:44.410Z,23.7
2018-07-11T11:39:51.634Z,23.8
2018-07-11T11:40:58.577Z,24
2018-07-11T11:42:06.170Z,24.1
2018-07-11T11:43:14.124Z,24.1
2018-07-11T11:44:21.341Z,23.7
2018-07-11T11:45:28.563Z,23.8
2018-07-11T11:46:35.776Z,23.9
2018-07-11T11:47:42.991Z,23.6
2018-07-11T11:48:49.940Z,23.3
2018-07-11T11:49:57.157Z,23.4
2018-07-11T11:51:04.112Z,23.7
2018-07-11T11:52:11.324Z,23.9
2018-07-11T11:53:18.532Z,24.1
2018-07-11T11:54:25.751Z,24.2
2018-07-11T11:55:32.977Z,24.1
2018-07-11T11:56:40.196Z,24.1
2018-07-11T11:57:47.415Z,24.2
2018-07-11T11:58:54.626Z,24.5
2018-07-11T12:00:01.838Z,24.7
2018-07-11T12:01:09.065Z,24.7
2018-07-11T12:02:16.277Z,24.6
2018-07-11T12:03:23.222Z,24.4
2018-07-11T12:04:30.165Z,24.1
2018-07-11T12:05:37.381Z,24
2018-07-11T12:06:44.602Z,24.1
2018-07-11T12:07:51.814Z,24.5
2018-07-11T12:08:59.025Z,25
2018-07-11T12:10:06.241Z,25.6
2018-07-11T12:11:13.460Z,25.8
2018-07-11T12:12:20.684Z,25.7
2018-07-11T12:13:27.900Z,25.5
2018-07-11T12:14:35.119Z,25.6
2018-07-11T12:15:42.336Z,26
2018-07-11T12:16:49.285Z,25.9
2018-07-11T12:17:56.504Z,25.9
2018-07-11T12:19:03.722Z,26.3
2018-07-11T12:20:10.931Z,26.7
2018-07-11T12:21:18.342Z,27
2018-07-11T12:22:25.569Z,27.1
2018-07-11T12:23:32.789Z,27
2018-07-11T12:24:40.000Z,27.2
2018-07-11T12:25:47.215Z,26.9
2018-07-11T12:26:54.437Z,26.6
2018-07-11T12:28:01.821Z,26.2
2018-07-11T12:29:09.558Z,26.1
2018-07-11T12:30:16.762Z,25.7
2018-07-11T12:31:23.977Z,25.7
2018-07-11T12:32:31.195Z,26.2
2018-07-11T12:33:38.546Z,26.5
2018-07-11T12:34:46.037Z,26.3
2018-07-11T12:35:53.257Z,26.2
2018-07-11T12:37:00.474Z,26.2
2018-07-11T12:38:07.705Z,25.8
2018-07-11T12:39:14.925Z,25.5
2018-07-11T12:40:22.155Z,25.6
2018-07-11T12:41:29.372Z,25.5
2018-07-11T12:42:36.349Z,25.3
2018-07-11T12:43:43.572Z,25.7
2018-07-11T12:44:50.786Z,25.9
2018-07-11T12:45:58.005Z,26
2018-07-11T12:47:05.222Z,26.4
2018-07-11T12:48:12.161Z,26.3
2018-07-11T12:49:19.380Z,25.9
2018-07-11T12:50:26.599Z,25.6
2018-07-11T12:51:33.820Z,25.6
2018-07-11T12:52:41.242Z,26
2018-07-11T12:53:48.462Z,25.5
2018-07-11T12:54:55.687Z,26
2018-07-11T12:56:02.904Z,26.2
2018-07-11T12:57:09.846Z,26.8
2018-07-11T12:58:17.069Z,27.2
2018-07-11T12:59:24.294Z,27.3
2018-07-11T13:00:31.523Z,27.6
2018-07-11T13:01:38.742Z,27.7
2018-07-11T13:02:45.966Z,27.4
2018-07-11T13:03:53.192Z,27.4
2018-07-11T13:05:00.411Z,27.7
2018-07-11T13:06:07.625Z,27.3
2018-07-11T13:07:14.570Z,27
2018-07-11T13:08:21.801Z,26.7
2018-07-11T13:09:28.733Z,26.4
2018-07-11T13:10:35.946Z,26.5
2018-07-11T13:11:43.165Z,26.7
2018-07-11T13:12:50.108Z,26.6
2018-07-11T13:13:57.336Z,26.5
2018-07-11T13:15:04.560Z,26.4
2018-07-11T13:16:11.999Z,26.3
2018-07-11T13:17:19.599Z,26.2
2018-07-11T13:18:26.826Z,26.1
2018-07-11T13:19:48.703Z,25.8
2018-07-11T13:20:55.922Z,25.4
2018-07-11T13:22:02.878Z,25.2
2018-07-11T13:23:10.098Z,24.6
2018-07-11T13:24:17.330Z,24.4
2018-07-11T13:25:24.559Z,24
2018-07-11T13:26:31.782Z,23.5
2018-07-11T13:27:38.995Z,23.7
2018-07-11T13:28:46.221Z,23.8
2018-07-11T13:29:53.454Z,24
2018-07-11T13:31:00.676Z,24.1
2018-07-11T13:32:07.900Z,24.1
2018-07-11T13:33:15.116Z,24.1
2018-07-11T13:34:22.335Z,23.6
2018-07-11T13:35:29.561Z,23.6
2018-07-11T13:36:36.775Z,23.4
2018-07-11T13:37:43.995Z,23.5
2018-07-11T13:38:51.214Z,23.7
2018-07-11T13:39:58.437Z,23.7
2018-07-11T13:41:05.653Z,23.5
2018-07-11T13:42:12.869Z,23.7
2018-07-11T13:43:20.096Z,23.8
2018-07-11T13:44:27.057Z,23.7
2018-07-11T13:45:34.275Z,23.7
2018-07-11T13:46:41.225Z,24
2018-07-11T13:47:48.443Z,24.3
2018-07-11T13:48:55.662Z,24.5
2018-07-11T13:50:02.883Z,24.8
2018-07-11T13:51:10.103Z,25.2
2018-07-11T13:52:17.317Z,25.6
2018-07-11T13:53:24.535Z,25.7
2018-07-11T13:54:31.764Z,25.8
2018-07-11T13:55:38.979Z,26.1
2018-07-11T13:56:46.199Z,26.4
2018-07-11T13:57:53.417Z,26.4
2018-07-11T13:59:00.640Z,26.5
2018-07-11T14:00:07.873Z,26.5
2018-07-11T14:01:14.806Z,25.5
2018-07-11T14:02:22.026Z,24.8
2018-07-11T14:03:29.248Z,24.4
2018-07-11T14:04:36.473Z,23.8
2018-07-11T14:05:43.691Z,23.3
2018-07-11T14:06:50.639Z,23.2
2018-07-11T14:07:57.583Z,23.2
2018-07-11T14:09:04.806Z,23.2
2018-07-11T14:10:12.021Z,23.2
2018-07-11T14:11:18.954Z,23.2
2018-07-11T14:12:26.169Z,23
2018-07-11T14:13:33.392Z,23
2018-07-11T14:14:40.604Z,22.9
2018-07-11T14:15:47.821Z,22.9
2018-07-11T14:16:54.757Z,22.8
2018-07-11T14:18:01.977Z,22.6
2018-07-11T14:19:09.204Z,22.3
2018-07-11T14:20:16.447Z,22.3
2018-07-11T14:21:23.739Z,22.4
2018-07-11T14:22:30.682Z,22.5
2018-07-11T14:23:37.899Z,22.8
2018-07-11T14:24:45.113Z,22.9
2018-07-11T14:25:52.055Z,22.8
2018-07-11T14:26:59.279Z,22.7
2018-07-11T14:28:06.492Z,22.6
2018-07-11T14:29:13.724Z,22.6
2018-07-11T14:30:20.944Z,22.6
2018-07-11T14:31:28.169Z,22.5
2018-07-11T14:32:35.386Z,22.5
2018-07-11T14:33:42.695Z,22.8
2018-07-11T14:34:50.146Z,22.8
2018-07-11T14:35:57.096Z,23.3
2018-07-11T14:37:04.309Z,23.8
2018-07-11T14:38:11.545Z,23.3
2018-07-11T14:39:18.773Z,23.7
2018-07-11T14:40:25.996Z,24.1
2018-07-11T14:41:33.212Z,24.5
2018-07-11T14:42:40.435Z,24.6
2018-07-11T14:43:47.656Z,24.8
2018-07-11T14:44:54.601Z,24.9
2018-07-11T14:46:01.816Z,24.9
2018-07-11T14:47:09.038Z,24.5
2018-07-11T14:48:15.978Z,24.3
2018-07-11T14:49:23.230Z,23.8
2018-07-11T14:50:30.449Z,23.2
2018-07-11T14:51:38.239Z,23
2018-07-11T14:52:46.326Z,22.9
2018-07-11T14:53:53.267Z,22.8
2018-07-11T14:55:00.206Z,22.5
2018-07-11T14:56:07.428Z,22.5
2018-07-11T14:57:14.642Z,22.5
2018-07-11T14:58:21.861Z,22.4